sensor_id;sensor_type;location;lat;lon;timestamp;P1;durP1;ratioP1;P2;durP2;ratioP2
5414;SDS011;2730;51.512;7.504;2022-09-24T05:13:00;17.02;;;10.93;;
5414;SDS011;2730;51.512;7.504;2022-09-24T05:15:30;16.90;;;10.95;;
5414;SDS011;2730;51.512;7.504;2022-09-24T05:17:57;27.67;;;10.85;;
5414;SDS011;2730;51.512;7.504;2022-09-24T05:20:24;13.95;;;9.57;;
5414;SDS011;2730;51.512;7.504;2022-09-24T05:22:51;16.17;;;9.65;;
5414;SDS011;2730;51.512;7.504;2022-09-24T05:25:19;13.50;;;9.20;;
5414;SDS011;2730;51.512;7.504;2022-09-24T05:27:48;21.33;;;9.30;;
5414;SDS011;2730;51.512;7.504;2022-09-24T05:30:17;17.02;;;9.25;;
5414;SDS011;2730;51.512;7.504;2022-09-24T05:32:45;24.48;;;10.65;;
5414;SDS011;2730;51.512;7.504;2022-09-24T05:35:15;16.85;;;9.43;;
5414;SDS011;2730;51.512;7.504;2022-09-24T05:37:43;16.25;;;9.35;;
5414;SDS011;2730;51.512;7.504;2022-09-24T05:40:13;18.80;;;10.10;;
5414;SDS011;2730;51.512;7.504;2022-09-24T05:42:59;15.93;;;8.77;;
5414;SDS011;2730;51.512;7.504;2022-09-24T05:45:27;13.60;;;9.07;;
5414;SDS011;2730;51.512;7.504;2022-09-24T05:47:54;10.57;;;9.02;;
5414;SDS011;2730;51.512;7.504;2022-09-24T05:50:20;15.32;;;9.88;;
5414;SDS011;2730;51.512;7.504;2022-09-24T05:52:47;15.02;;;9.35;;
5414;SDS011;2730;51.512;7.504;2022-09-24T05:55:14;17.67;;;10.88;;
5414;SDS011;2730;51.512;7.504;2022-09-24T05:57:41;16.73;;;10.20;;
5414;SDS011;2730;51.512;7.504;2022-09-24T06:00:10;17.50;;;8.82;;
5414;SDS011;2730;51.512;7.504;2022-09-24T06:02:37;14.93;;;9.85;;
5414;SDS011;2730;51.512;7.504;2022-09-24T06:05:04;13.02;;;8.60;;
5414;SDS011;2730;51.512;7.504;2022-09-24T06:07:32;15.10;;;9.88;;
5414;SDS011;2730;51.512;7.504;2022-09-24T06:09:59;19.60;;;9.55;;
5414;SDS011;2730;51.512;7.504;2022-09-24T06:12:26;16.88;;;9.65;;
5414;SDS011;2730;51.512;7.504;2022-09-24T06:14:53;16.20;;;10.65;;
5414;SDS011;2730;51.512;7.504;2022-09-24T06:17:21;21.27;;;12.25;;
5414;SDS011;2730;51.512;7.504;2022-09-24T06:19:48;19.10;;;11.80;;
5414;SDS011;2730;51.512;7.504;2022-09-24T06:22:16;18.70;;;11.38;;
5414;SDS011;2730;51.512;7.504;2022-09-24T06:24:48;23.73;;;11.68;;
5414;SDS011;2730;51.512;7.504;2022-09-24T06:27:22;21.17;;;12.43;;
5414;SDS011;2730;51.512;7.504;2022-09-24T06:29:56;21.10;;;11.60;;
5414;SDS011;2730;51.512;7.504;2022-09-24T06:32:36;27.67;;;12.15;;
5414;SDS011;2730;51.512;7.504;2022-09-24T06:35:03;19.77;;;13.07;;
5414;SDS011;2730;51.512;7.504;2022-09-24T06:37:30;18.77;;;12.57;;
5414;SDS011;2730;51.512;7.504;2022-09-24T06:39:58;23.20;;;13.35;;
5414;SDS011;2730;51.512;7.504;2022-09-24T06:42:40;19.02;;;12.15;;
5414;SDS011;2730;51.512;7.504;2022-09-24T06:45:08;20.60;;;12.40;;
5414;SDS011;2730;51.512;7.504;2022-09-24T06:47:41;21.42;;;12.27;;
5414;SDS011;2730;51.512;7.504;2022-09-24T06:50:08;24.63;;;12.65;;
5414;SDS011;2730;51.512;7.504;2022-09-24T06:52:35;21.38;;;12.73;;
5414;SDS011;2730;51.512;7.504;2022-09-24T06:55:05;21.48;;;12.95;;
5414;SDS011;2730;51.512;7.504;2022-09-24T06:57:32;19.52;;;11.70;;
5414;SDS011;2730;51.512;7.504;2022-09-24T07:00:01;24.10;;;13.57;;
5414;SDS011;2730;51.512;7.504;2022-09-24T07:02:28;20.75;;;11.90;;
5414;SDS011;2730;51.512;7.504;2022-09-24T07:04:56;23.00;;;13.43;;
5414;SDS011;2730;51.512;7.504;2022-09-24T07:07:23;20.90;;;12.25;;
5414;SDS011;2730;51.512;7.504;2022-09-24T07:09:57;25.10;;;11.95;;
5414;SDS011;2730;51.512;7.504;2022-09-24T07:12:27;23.30;;;12.30;;
5414;SDS011;2730;51.512;7.504;2022-09-24T07:15:00;25.20;;;12.75;;
5414;SDS011;2730;51.512;7.504;2022-09-24T07:17:27;24.08;;;13.60;;
5414;SDS011;2730;51.512;7.504;2022-09-24T07:20:04;23.90;;;13.35;;
5414;SDS011;2730;51.512;7.504;2022-09-24T07:22:35;19.20;;;11.93;;
5414;SDS011;2730;51.512;7.504;2022-09-24T07:25:04;19.17;;;11.73;;
5414;SDS011;2730;51.512;7.504;2022-09-24T07:27:32;23.30;;;13.40;;
5414;SDS011;2730;51.512;7.504;2022-09-24T07:29:59;21.00;;;13.30;;
5414;SDS011;2730;51.512;7.504;2022-09-24T07:32:26;24.45;;;13.73;;
5414;SDS011;2730;51.512;7.504;2022-09-24T07:34:54;24.80;;;12.10;;
5414;SDS011;2730;51.512;7.504;2022-09-24T07:37:22;23.50;;;13.40;;
5414;SDS011;2730;51.512;7.504;2022-09-24T07:39:49;20.05;;;12.10;;
5414;SDS011;2730;51.512;7.504;2022-09-24T07:42:16;22.30;;;12.87;;
5414;SDS011;2730;51.512;7.504;2022-09-24T07:44:43;25.38;;;13.30;;
5414;SDS011;2730;51.512;7.504;2022-09-24T07:47:12;24.27;;;13.00;;
5414;SDS011;2730;51.512;7.504;2022-09-24T07:49:40;16.47;;;11.37;;
5414;SDS011;2730;51.512;7.504;2022-09-24T07:52:07;27.03;;;11.13;;
5414;SDS011;2730;51.512;7.504;2022-09-24T07:54:35;22.67;;;12.00;;
5414;SDS011;2730;51.512;7.504;2022-09-24T07:57:06;22.77;;;12.13;;
5414;SDS011;2730;51.512;7.504;2022-09-24T07:59:36;20.10;;;10.10;;
5414;SDS011;2730;51.512;7.504;2022-09-24T08:02:07;18.70;;;10.50;;
5414;SDS011;2730;51.512;7.504;2022-09-24T08:04:39;15.13;;;10.10;;
5414;SDS011;2730;51.512;7.504;2022-09-24T08:07:06;20.93;;;10.70;;
5414;SDS011;2730;51.512;7.504;2022-09-24T08:09:33;17.90;;;10.00;;
5414;SDS011;2730;51.512;7.504;2022-09-24T08:12:02;14.90;;;10.47;;
5414;SDS011;2730;51.512;7.504;2022-09-24T08:14:29;15.47;;;9.57;;
5414;SDS011;2730;51.512;7.504;2022-09-24T08:16:56;17.77;;;9.07;;
5414;SDS011;2730;51.512;7.504;2022-09-24T08:19:23;16.43;;;10.70;;
5414;SDS011;2730;51.512;7.504;2022-09-24T08:21:52;15.47;;;9.97;;
5414;SDS011;2730;51.512;7.504;2022-09-24T08:24:19;15.47;;;8.90;;
5414;SDS011;2730;51.512;7.504;2022-09-24T08:26:46;14.07;;;8.30;;
5414;SDS011;2730;51.512;7.504;2022-09-24T08:29:14;12.07;;;8.20;;
5414;SDS011;2730;51.512;7.504;2022-09-24T08:31:41;11.30;;;7.60;;
5414;SDS011;2730;51.512;7.504;2022-09-24T08:34:08;14.87;;;8.90;;
5414;SDS011;2730;51.512;7.504;2022-09-24T08:36:35;13.63;;;8.23;;
5414;SDS011;2730;51.512;7.504;2022-09-24T08:39:01;10.30;;;7.93;;
5414;SDS011;2730;51.512;7.504;2022-09-24T08:41:33;15.57;;;9.73;;
5414;SDS011;2730;51.512;7.504;2022-09-24T08:44:17;22.20;;;12.50;;
5414;SDS011;2730;51.512;7.504;2022-09-24T08:47:03;12.70;;;8.60;;
5414;SDS011;2730;51.512;7.504;2022-09-24T08:49:49;12.97;;;8.53;;
5414;SDS011;2730;51.512;7.504;2022-09-24T08:52:27;14.13;;;7.57;;
5414;SDS011;2730;51.512;7.504;2022-09-24T08:55:03;11.10;;;7.57;;
5414;SDS011;2730;51.512;7.504;2022-09-24T08:57:36;13.93;;;7.23;;
5414;SDS011;2730;51.512;7.504;2022-09-24T09:00:13;13.40;;;8.50;;
5414;SDS011;2730;51.512;7.504;2022-09-24T09:02:41;11.83;;;7.20;;
5414;SDS011;2730;51.512;7.504;2022-09-24T09:05:17;9.93;;;7.13;;
5414;SDS011;2730;51.512;7.504;2022-09-24T09:07:53;13.13;;;8.00;;
5414;SDS011;2730;51.512;7.504;2022-09-24T09:10:26;11.60;;;7.67;;
5414;SDS011;2730;51.512;7.504;2022-09-24T09:12:59;11.53;;;7.03;;
5414;SDS011;2730;51.512;7.504;2022-09-24T09:15:32;10.30;;;6.77;;
5414;SDS011;2730;51.512;7.504;2022-09-24T09:18:09;8.30;;;6.70;;
5414;SDS011;2730;51.512;7.504;2022-09-24T09:20:40;9.87;;;6.20;;
5414;SDS011;2730;51.512;7.504;2022-09-24T09:23:12;13.80;;;7.93;;
5414;SDS011;2730;51.512;7.504;2022-09-24T09:25:41;13.20;;;7.70;;
5414;SDS011;2730;51.512;7.504;2022-09-24T09:28:16;15.73;;;8.07;;
5414;SDS011;2730;51.512;7.504;2022-09-24T09:30:47;16.53;;;7.63;;
5414;SDS011;2730;51.512;7.504;2022-09-24T09:33:26;15.83;;;8.83;;
5414;SDS011;2730;51.512;7.504;2022-09-24T09:36:04;13.00;;;8.33;;
5414;SDS011;2730;51.512;7.504;2022-09-24T09:38:45;13.50;;;8.13;;
5414;SDS011;2730;51.512;7.504;2022-09-24T09:41:19;12.40;;;8.10;;
5414;SDS011;2730;51.512;7.504;2022-09-24T09:43:57;12.90;;;7.70;;
5414;SDS011;2730;51.512;7.504;2022-09-24T09:46:30;14.23;;;8.33;;
5414;SDS011;2730;51.512;7.504;2022-09-24T09:49:03;19.07;;;9.30;;
5414;SDS011;2730;51.512;7.504;2022-09-24T09:51:35;31.80;;;12.80;;
5414;SDS011;2730;51.512;7.504;2022-09-24T09:54:13;14.37;;;8.27;;
5414;SDS011;2730;51.512;7.504;2022-09-24T09:56:41;16.17;;;7.60;;
5414;SDS011;2730;51.512;7.504;2022-09-24T09:59:16;12.80;;;7.70;;
5414;SDS011;2730;51.512;7.504;2022-09-24T10:01:48;11.93;;;7.83;;
5414;SDS011;2730;51.512;7.504;2022-09-24T10:04:23;16.63;;;10.37;;
5414;SDS011;2730;51.512;7.504;2022-09-24T10:07:12;11.07;;;7.30;;
5414;SDS011;2730;51.512;7.504;2022-09-24T10:09:56;12.47;;;6.87;;
5414;SDS011;2730;51.512;7.504;2022-09-24T10:12:43;12.03;;;8.10;;
5414;SDS011;2730;51.512;7.504;2022-09-24T10:15:18;13.00;;;7.13;;
5414;SDS011;2730;51.512;7.504;2022-09-24T10:21:08;13.83;;;6.70;;
5414;SDS011;2730;51.512;7.504;2022-09-24T10:23:56;11.10;;;6.87;;
5414;SDS011;2730;51.512;7.504;2022-09-24T10:29:13;11.10;;;7.30;;
5414;SDS011;2730;51.512;7.504;2022-09-24T10:32:02;9.73;;;6.30;;
5414;SDS011;2730;51.512;7.504;2022-09-24T10:34:31;12.97;;;6.67;;
5414;SDS011;2730;51.512;7.504;2022-09-24T10:36:58;13.80;;;7.90;;
5414;SDS011;2730;51.512;7.504;2022-09-24T10:39:26;12.50;;;7.70;;
5414;SDS011;2730;51.512;7.504;2022-09-24T10:41:55;12.33;;;7.80;;
5414;SDS011;2730;51.512;7.504;2022-09-24T10:44:23;13.60;;;7.60;;
5414;SDS011;2730;51.512;7.504;2022-09-24T10:47:17;11.80;;;7.10;;
5414;SDS011;2730;51.512;7.504;2022-09-24T10:52:52;11.80;;;6.90;;
5414;SDS011;2730;51.512;7.504;2022-09-24T10:55:24;9.40;;;6.90;;
5414;SDS011;2730;51.512;7.504;2022-09-24T10:58:10;9.00;;;6.77;;
5414;SDS011;2730;51.512;7.504;2022-09-24T11:00:51;10.73;;;6.80;;
5414;SDS011;2730;51.512;7.504;2022-09-24T11:03:30;11.03;;;7.27;;
5414;SDS011;2730;51.512;7.504;2022-09-24T11:06:14;12.07;;;6.80;;
5414;SDS011;2730;51.512;7.504;2022-09-24T11:08:55;12.53;;;7.10;;
5414;SDS011;2730;51.512;7.504;2022-09-24T11:11:36;12.93;;;7.27;;
5414;SDS011;2730;51.512;7.504;2022-09-24T11:14:17;11.73;;;7.70;;
5414;SDS011;2730;51.512;7.504;2022-09-24T11:17:16;11.90;;;7.77;;
5414;SDS011;2730;51.512;7.504;2022-09-24T11:20:10;11.93;;;7.87;;
5414;SDS011;2730;51.512;7.504;2022-09-24T11:22:55;10.50;;;7.10;;
5414;SDS011;2730;51.512;7.504;2022-09-24T11:25:37;15.13;;;8.90;;
5414;SDS011;2730;51.512;7.504;2022-09-24T11:28:14;16.63;;;8.50;;
5414;SDS011;2730;51.512;7.504;2022-09-24T11:30:54;11.43;;;8.30;;
5414;SDS011;2730;51.512;7.504;2022-09-24T11:33:31;18.10;;;8.80;;
5414;SDS011;2730;51.512;7.504;2022-09-24T11:36:14;14.00;;;8.20;;
5414;SDS011;2730;51.512;7.504;2022-09-24T11:39:06;14.47;;;9.00;;
5414;SDS011;2730;51.512;7.504;2022-09-24T11:41:43;13.50;;;8.40;;
5414;SDS011;2730;51.512;7.504;2022-09-24T11:44:21;13.20;;;7.87;;
5414;SDS011;2730;51.512;7.504;2022-09-24T11:47:05;13.10;;;7.60;;
5414;SDS011;2730;51.512;7.504;2022-09-24T11:49:43;12.37;;;7.37;;
5414;SDS011;2730;51.512;7.504;2022-09-24T11:52:21;8.17;;;6.50;;
5414;SDS011;2730;51.512;7.504;2022-09-24T11:54:56;16.20;;;8.87;;
5414;SDS011;2730;51.512;7.504;2022-09-24T11:57:30;17.57;;;9.70;;
5414;SDS011;2730;51.512;7.504;2022-09-24T12:00:03;14.63;;;8.87;;
5414;SDS011;2730;51.512;7.504;2022-09-24T12:02:35;10.13;;;8.30;;
5414;SDS011;2730;51.512;7.504;2022-09-24T12:05:06;16.13;;;9.33;;
5414;SDS011;2730;51.512;7.504;2022-09-24T12:07:41;13.13;;;9.00;;
5414;SDS011;2730;51.512;7.504;2022-09-24T12:13:05;14.77;;;9.07;;
5414;SDS011;2730;51.512;7.504;2022-09-24T12:15:45;15.07;;;9.00;;
5414;SDS011;2730;51.512;7.504;2022-09-24T12:18:17;12.53;;;7.60;;
5414;SDS011;2730;51.512;7.504;2022-09-24T12:20:49;16.67;;;8.10;;
5414;SDS011;2730;51.512;7.504;2022-09-24T12:23:21;13.73;;;8.50;;
5414;SDS011;2730;51.512;7.504;2022-09-24T12:25:53;10.27;;;7.47;;
5414;SDS011;2730;51.512;7.504;2022-09-24T12:28:22;14.53;;;8.03;;
5414;SDS011;2730;51.512;7.504;2022-09-24T12:31:10;12.27;;;8.13;;
5414;SDS011;2730;51.512;7.504;2022-09-24T12:34:00;12.80;;;8.60;;
5414;SDS011;2730;51.512;7.504;2022-09-24T12:36:36;12.83;;;8.60;;
5414;SDS011;2730;51.512;7.504;2022-09-24T12:39:18;15.70;;;9.23;;
5414;SDS011;2730;51.512;7.504;2022-09-24T12:41:49;14.70;;;8.73;;
5414;SDS011;2730;51.512;7.504;2022-09-24T12:44:24;15.43;;;8.00;;
5414;SDS011;2730;51.512;7.504;2022-09-24T12:46:58;17.00;;;9.63;;
5414;SDS011;2730;51.512;7.504;2022-09-24T12:49:27;15.53;;;8.87;;
5414;SDS011;2730;51.512;7.504;2022-09-24T12:51:58;13.37;;;9.03;;
5414;SDS011;2730;51.512;7.504;2022-09-24T12:54:27;13.60;;;9.10;;
5414;SDS011;2730;51.512;7.504;2022-09-24T12:57:07;12.27;;;8.80;;
5414;SDS011;2730;51.512;7.504;2022-09-24T12:59:45;15.90;;;9.67;;
5414;SDS011;2730;51.512;7.504;2022-09-24T13:02:15;17.00;;;8.93;;
5414;SDS011;2730;51.512;7.504;2022-09-24T13:04:46;14.67;;;9.03;;
5414;SDS011;2730;51.512;7.504;2022-09-24T13:07:30;13.20;;;8.30;;
5414;SDS011;2730;51.512;7.504;2022-09-24T13:10:20;10.90;;;8.43;;
5414;SDS011;2730;51.512;7.504;2022-09-24T13:12:50;11.03;;;9.00;;
5414;SDS011;2730;51.512;7.504;2022-09-24T13:18:19;14.17;;;9.03;;
5414;SDS011;2730;51.512;7.504;2022-09-24T13:20:56;14.80;;;8.90;;
5414;SDS011;2730;51.512;7.504;2022-09-24T13:23:29;12.10;;;9.03;;
5414;SDS011;2730;51.512;7.504;2022-09-24T13:25:59;11.57;;;9.53;;
5414;SDS011;2730;51.512;7.504;2022-09-24T13:28:30;16.13;;;9.43;;
5414;SDS011;2730;51.512;7.504;2022-09-24T13:31:01;14.90;;;8.93;;
5414;SDS011;2730;51.512;7.504;2022-09-24T13:33:38;14.67;;;10.00;;
5414;SDS011;2730;51.512;7.504;2022-09-24T13:36:10;14.60;;;9.30;;
5414;SDS011;2730;51.512;7.504;2022-09-24T13:38:42;14.50;;;9.90;;
5414;SDS011;2730;51.512;7.504;2022-09-24T13:41:19;14.90;;;10.10;;
5414;SDS011;2730;51.512;7.504;2022-09-24T13:43:55;15.30;;;10.13;;
5414;SDS011;2730;51.512;7.504;2022-09-24T13:46:26;18.70;;;10.90;;
5414;SDS011;2730;51.512;7.504;2022-09-24T13:48:54;18.17;;;10.57;;
5414;SDS011;2730;51.512;7.504;2022-09-24T13:51:26;14.73;;;9.40;;
5414;SDS011;2730;51.512;7.504;2022-09-24T13:53:55;19.57;;;9.80;;
5414;SDS011;2730;51.512;7.504;2022-09-24T13:56:28;15.03;;;10.50;;
5414;SDS011;2730;51.512;7.504;2022-09-24T13:59:02;17.10;;;11.37;;
5414;SDS011;2730;51.512;7.504;2022-09-24T14:01:34;18.33;;;11.53;;
5414;SDS011;2730;51.512;7.504;2022-09-24T14:04:04;17.33;;;11.87;;
5414;SDS011;2730;51.512;7.504;2022-09-24T14:06:44;16.50;;;10.40;;
5414;SDS011;2730;51.512;7.504;2022-09-24T14:09:15;19.10;;;11.87;;
5414;SDS011;2730;51.512;7.504;2022-09-24T14:11:51;20.40;;;11.27;;
5414;SDS011;2730;51.512;7.504;2022-09-24T14:14:20;21.30;;;11.90;;
5414;SDS011;2730;51.512;7.504;2022-09-24T14:16:49;20.80;;;12.93;;
5414;SDS011;2730;51.512;7.504;2022-09-24T14:19:18;22.20;;;12.73;;
5414;SDS011;2730;51.512;7.504;2022-09-24T14:21:47;18.80;;;12.20;;
5414;SDS011;2730;51.512;7.504;2022-09-24T14:24:17;20.23;;;12.57;;
5414;SDS011;2730;51.512;7.504;2022-09-24T14:26:48;22.73;;;13.30;;
5414;SDS011;2730;51.512;7.504;2022-09-24T14:29:21;18.80;;;11.53;;
5414;SDS011;2730;51.512;7.504;2022-09-24T14:31:51;17.53;;;10.70;;
5414;SDS011;2730;51.512;7.504;2022-09-24T14:34:25;19.60;;;10.87;;
5414;SDS011;2730;51.512;7.504;2022-09-24T14:36:56;18.10;;;11.17;;
5414;SDS011;2730;51.512;7.504;2022-09-24T14:39:30;17.53;;;11.63;;
5414;SDS011;2730;51.512;7.504;2022-09-24T14:42:06;19.87;;;11.17;;
5414;SDS011;2730;51.512;7.504;2022-09-24T14:44:38;19.33;;;13.13;;
5414;SDS011;2730;51.512;7.504;2022-09-24T14:47:19;26.17;;;12.33;;
5414;SDS011;2730;51.512;7.504;2022-09-24T14:49:51;19.10;;;11.37;;
5414;SDS011;2730;51.512;7.504;2022-09-24T14:52:26;18.80;;;12.63;;
5414;SDS011;2730;51.512;7.504;2022-09-24T14:55:14;19.53;;;12.17;;
5414;SDS011;2730;51.512;7.504;2022-09-24T14:57:42;20.17;;;12.83;;
5414;SDS011;2730;51.512;7.504;2022-09-24T15:00:22;23.80;;;14.70;;
5414;SDS011;2730;51.512;7.504;2022-09-24T15:02:51;23.23;;;15.30;;
5414;SDS011;2730;51.512;7.504;2022-09-24T15:05:24;18.37;;;13.87;;
5414;SDS011;2730;51.512;7.504;2022-09-24T15:07:53;22.23;;;15.60;;
5414;SDS011;2730;51.512;7.504;2022-09-24T15:10:37;24.20;;;14.93;;
5414;SDS011;2730;51.512;7.504;2022-09-24T15:13:11;25.10;;;14.67;;
5414;SDS011;2730;51.512;7.504;2022-09-24T15:15:41;28.57;;;15.77;;
5414;SDS011;2730;51.512;7.504;2022-09-24T15:18:22;23.33;;;15.10;;
5414;SDS011;2730;51.512;7.504;2022-09-24T15:20:48;25.33;;;14.80;;
5414;SDS011;2730;51.512;7.504;2022-09-24T15:23:17;25.00;;;15.10;;
5414;SDS011;2730;51.512;7.504;2022-09-24T15:25:48;27.27;;;15.70;;
5414;SDS011;2730;51.512;7.504;2022-09-24T15:28:15;21.93;;;14.90;;
5414;SDS011;2730;51.512;7.504;2022-09-24T15:30:43;25.60;;;15.80;;
5414;SDS011;2730;51.512;7.504;2022-09-24T15:33:13;23.50;;;15.63;;
5414;SDS011;2730;51.512;7.504;2022-09-24T15:35:41;24.50;;;15.87;;
5414;SDS011;2730;51.512;7.504;2022-09-24T15:38:17;27.77;;;17.13;;
5414;SDS011;2730;51.512;7.504;2022-09-24T15:40:44;33.00;;;16.87;;
5414;SDS011;2730;51.512;7.504;2022-09-24T15:43:19;25.53;;;16.40;;
5414;SDS011;2730;51.512;7.504;2022-09-24T15:45:50;33.97;;;17.13;;
5414;SDS011;2730;51.512;7.504;2022-09-24T15:48:17;25.83;;;16.80;;
5414;SDS011;2730;51.512;7.504;2022-09-24T15:50:44;24.53;;;15.80;;
5414;SDS011;2730;51.512;7.504;2022-09-24T15:53:15;27.40;;;17.17;;
5414;SDS011;2730;51.512;7.504;2022-09-24T15:55:46;27.20;;;17.10;;
5414;SDS011;2730;51.512;7.504;2022-09-24T15:58:15;32.57;;;16.77;;
5414;SDS011;2730;51.512;7.504;2022-09-24T16:00:42;30.87;;;17.63;;
5414;SDS011;2730;51.512;7.504;2022-09-24T16:03:13;23.70;;;16.30;;
5414;SDS011;2730;51.512;7.504;2022-09-24T16:05:44;26.40;;;16.40;;
5414;SDS011;2730;51.512;7.504;2022-09-24T16:08:11;27.30;;;16.67;;
5414;SDS011;2730;51.512;7.504;2022-09-24T16:10:38;25.77;;;16.97;;
5414;SDS011;2730;51.512;7.504;2022-09-24T16:13:05;33.63;;;19.10;;
5414;SDS011;2730;51.512;7.504;2022-09-24T16:15:33;28.13;;;17.67;;
5414;SDS011;2730;51.512;7.504;2022-09-24T16:18:00;31.10;;;18.60;;
5414;SDS011;2730;51.512;7.504;2022-09-24T16:20:29;35.23;;;20.90;;
5414;SDS011;2730;51.512;7.504;2022-09-24T16:22:56;36.73;;;18.00;;
5414;SDS011;2730;51.512;7.504;2022-09-24T16:25:23;30.20;;;17.53;;
5414;SDS011;2730;51.512;7.504;2022-09-24T16:27:51;30.30;;;18.07;;
5414;SDS011;2730;51.512;7.504;2022-09-24T16:30:18;33.53;;;18.33;;
5414;SDS011;2730;51.512;7.504;2022-09-24T16:32:45;29.87;;;17.30;;
5414;SDS011;2730;51.512;7.504;2022-09-24T16:35:12;40.43;;;22.27;;
5414;SDS011;2730;51.512;7.504;2022-09-24T16:37:40;33.07;;;19.50;;
5414;SDS011;2730;51.512;7.504;2022-09-24T16:40:07;32.47;;;18.70;;
5414;SDS011;2730;51.512;7.504;2022-09-24T16:42:36;31.90;;;18.23;;
5414;SDS011;2730;51.512;7.504;2022-09-24T16:45:03;32.70;;;19.37;;
5414;SDS011;2730;51.512;7.504;2022-09-24T16:47:31;33.50;;;19.07;;
5414;SDS011;2730;51.512;7.504;2022-09-24T16:49:57;31.80;;;18.40;;
5414;SDS011;2730;51.512;7.504;2022-09-24T16:52:24;29.23;;;18.00;;
5414;SDS011;2730;51.512;7.504;2022-09-24T16:54:52;31.87;;;19.57;;
5414;SDS011;2730;51.512;7.504;2022-09-24T16:57:19;31.80;;;17.63;;
5414;SDS011;2730;51.512;7.504;2022-09-24T16:59:46;28.83;;;17.80;;
5414;SDS011;2730;51.512;7.504;2022-09-24T17:02:13;27.73;;;16.30;;
5414;SDS011;2730;51.512;7.504;2022-09-24T17:04:40;29.10;;;16.63;;
5414;SDS011;2730;51.512;7.504;2022-09-24T17:07:07;32.33;;;19.63;;
5414;SDS011;2730;51.512;7.504;2022-09-24T17:09:34;28.87;;;16.57;;
5414;SDS011;2730;51.512;7.504;2022-09-24T17:12:20;31.73;;;16.70;;
5414;SDS011;2730;51.512;7.504;2022-09-24T17:14:47;28.60;;;18.00;;
5414;SDS011;2730;51.512;7.504;2022-09-24T17:17:14;32.20;;;17.60;;
5414;SDS011;2730;51.512;7.504;2022-09-24T17:19:40;29.27;;;17.40;;
5414;SDS011;2730;51.512;7.504;2022-09-24T17:22:07;30.13;;;17.90;;
5414;SDS011;2730;51.512;7.504;2022-09-24T17:24:34;42.13;;;19.80;;
5414;SDS011;2730;51.512;7.504;2022-09-24T17:27:07;28.20;;;17.55;;
5414;SDS011;2730;51.512;7.504;2022-09-24T17:29:35;34.70;;;19.47;;
5414;SDS011;2730;51.512;7.504;2022-09-24T17:32:02;35.43;;;18.00;;
5414;SDS011;2730;51.512;7.504;2022-09-24T17:34:29;29.30;;;18.27;;
5414;SDS011;2730;51.512;7.504;2022-09-24T17:36:57;29.65;;;18.13;;
5414;SDS011;2730;51.512;7.504;2022-09-24T17:39:24;28.23;;;18.10;;
5414;SDS011;2730;51.512;7.504;2022-09-24T17:41:52;34.38;;;19.55;;
5414;SDS011;2730;51.512;7.504;2022-09-24T17:44:18;32.50;;;20.55;;
5414;SDS011;2730;51.512;7.504;2022-09-24T17:46:47;34.80;;;20.37;;
5414;SDS011;2730;51.512;7.504;2022-09-24T17:49:14;35.17;;;21.00;;
5414;SDS011;2730;51.512;7.504;2022-09-24T17:51:41;36.53;;;19.70;;
5414;SDS011;2730;51.512;7.504;2022-09-24T17:54:11;33.27;;;20.67;;
5414;SDS011;2730;51.512;7.504;2022-09-24T17:56:39;33.83;;;20.80;;
5414;SDS011;2730;51.512;7.504;2022-09-24T17:59:08;36.67;;;21.33;;
5414;SDS011;2730;51.512;7.504;2022-09-24T18:01:38;36.10;;;21.33;;
5414;SDS011;2730;51.512;7.504;2022-09-24T18:04:10;36.77;;;23.07;;
5414;SDS011;2730;51.512;7.504;2022-09-24T18:06:39;33.23;;;19.67;;
5414;SDS011;2730;51.512;7.504;2022-09-24T18:09:08;38.03;;;22.47;;
5414;SDS011;2730;51.512;7.504;2022-09-24T18:11:37;33.63;;;21.13;;
5414;SDS011;2730;51.512;7.504;2022-09-24T18:14:06;37.23;;;21.97;;
5414;SDS011;2730;51.512;7.504;2022-09-24T18:16:35;36.87;;;21.67;;
5414;SDS011;2730;51.512;7.504;2022-09-24T18:19:02;36.63;;;21.80;;
5414;SDS011;2730;51.512;7.504;2022-09-24T18:21:31;39.60;;;23.90;;
5414;SDS011;2730;51.512;7.504;2022-09-24T18:23:58;44.43;;;23.30;;
5414;SDS011;2730;51.512;7.504;2022-09-24T18:26:26;36.37;;;22.20;;
5414;SDS011;2730;51.512;7.504;2022-09-24T18:28:57;40.65;;;22.88;;
5414;SDS011;2730;51.512;7.504;2022-09-24T18:31:25;38.25;;;22.13;;
5414;SDS011;2730;51.512;7.504;2022-09-24T18:33:54;40.33;;;23.55;;
5414;SDS011;2730;51.512;7.504;2022-09-24T18:36:23;45.87;;;24.03;;
5414;SDS011;2730;51.512;7.504;2022-09-24T18:38:52;45.57;;;23.10;;
5414;SDS011;2730;51.512;7.504;2022-09-24T18:41:21;40.80;;;22.00;;
5414;SDS011;2730;51.512;7.504;2022-09-24T18:43:48;38.37;;;22.80;;
5414;SDS011;2730;51.512;7.504;2022-09-24T18:46:16;42.47;;;24.13;;
5414;SDS011;2730;51.512;7.504;2022-09-24T18:48:45;38.45;;;21.98;;
5414;SDS011;2730;51.512;7.504;2022-09-24T18:51:14;46.00;;;23.52;;
5414;SDS011;2730;51.512;7.504;2022-09-24T18:53:42;41.20;;;24.27;;
5414;SDS011;2730;51.512;7.504;2022-09-24T18:56:10;37.67;;;21.90;;
5414;SDS011;2730;51.512;7.504;2022-09-24T18:58:37;37.92;;;21.52;;
5414;SDS011;2730;51.512;7.504;2022-09-24T19:01:04;40.50;;;22.08;;
5414;SDS011;2730;51.512;7.504;2022-09-24T19:03:33;39.60;;;22.58;;
5414;SDS011;2730;51.512;7.504;2022-09-24T19:06:02;35.47;;;21.43;;
5414;SDS011;2730;51.512;7.504;2022-09-24T19:08:31;36.85;;;21.85;;
5414;SDS011;2730;51.512;7.504;2022-09-24T19:11:00;35.63;;;21.70;;
5414;SDS011;2730;51.512;7.504;2022-09-24T19:13:33;41.10;;;21.60;;
5414;SDS011;2730;51.512;7.504;2022-09-24T19:16:01;34.65;;;19.45;;
5414;SDS011;2730;51.512;7.504;2022-09-24T19:18:29;30.60;;;17.67;;
5414;SDS011;2730;51.512;7.504;2022-09-24T19:20:56;34.80;;;19.30;;
5414;SDS011;2730;51.512;7.504;2022-09-24T19:23:23;29.58;;;17.45;;
5414;SDS011;2730;51.512;7.504;2022-09-24T19:25:49;29.38;;;16.38;;
5414;SDS011;2730;51.512;7.504;2022-09-24T19:28:18;24.17;;;14.80;;
5414;SDS011;2730;51.512;7.504;2022-09-24T19:30:46;23.75;;;14.43;;
5414;SDS011;2730;51.512;7.504;2022-09-24T19:33:15;30.70;;;16.58;;
5414;SDS011;2730;51.512;7.504;2022-09-24T19:35:46;25.70;;;14.70;;
5414;SDS011;2730;51.512;7.504;2022-09-24T19:38:20;21.05;;;13.35;;
5414;SDS011;2730;51.512;7.504;2022-09-24T19:40:54;25.38;;;14.88;;
5414;SDS011;2730;51.512;7.504;2022-09-24T19:43:22;26.48;;;14.68;;
5414;SDS011;2730;51.512;7.504;2022-09-24T19:45:55;23.88;;;13.45;;
5414;SDS011;2730;51.512;7.504;2022-09-24T19:48:23;23.35;;;14.45;;
5414;SDS011;2730;51.512;7.504;2022-09-24T19:50:50;30.95;;;14.98;;
5414;SDS011;2730;51.512;7.504;2022-09-24T19:53:17;25.35;;;15.18;;
5414;SDS011;2730;51.512;7.504;2022-09-24T19:55:45;29.92;;;14.57;;
5414;SDS011;2730;51.512;7.504;2022-09-24T19:58:12;22.50;;;13.90;;
5414;SDS011;2730;51.512;7.504;2022-09-24T20:00:39;22.95;;;13.63;;
5414;SDS011;2730;51.512;7.504;2022-09-24T20:03:26;21.50;;;13.95;;
5414;SDS011;2730;51.512;7.504;2022-09-24T20:06:16;23.13;;;13.50;;
5414;SDS011;2730;51.512;7.504;2022-09-24T20:08:46;21.00;;;13.38;;
5414;SDS011;2730;51.512;7.504;2022-09-24T20:11:14;21.38;;;13.20;;
5414;SDS011;2730;51.512;7.504;2022-09-24T20:13:44;26.73;;;16.25;;
5414;SDS011;2730;51.512;7.504;2022-09-24T20:16:12;30.63;;;14.80;;
5414;SDS011;2730;51.512;7.504;2022-09-24T20:18:54;25.42;;;14.32;;
5414;SDS011;2730;51.512;7.504;2022-09-24T20:21:41;27.17;;;14.25;;
5414;SDS011;2730;51.512;7.504;2022-09-24T20:24:09;26.70;;;15.25;;
5414;SDS011;2730;51.512;7.504;2022-09-24T20:26:39;22.08;;;14.57;;
5414;SDS011;2730;51.512;7.504;2022-09-24T20:29:23;21.02;;;13.80;;
5414;SDS011;2730;51.512;7.504;2022-09-24T20:31:51;28.10;;;15.27;;
5414;SDS011;2730;51.512;7.504;2022-09-24T20:34:21;23.85;;;14.70;;
5414;SDS011;2730;51.512;7.504;2022-09-24T20:36:50;25.77;;;16.25;;
5414;SDS011;2730;51.512;7.504;2022-09-24T20:39:17;24.38;;;14.88;;
5414;SDS011;2730;51.512;7.504;2022-09-24T20:41:45;26.77;;;16.60;;
5414;SDS011;2730;51.512;7.504;2022-09-24T20:44:13;24.30;;;15.73;;
5414;SDS011;2730;51.512;7.504;2022-09-24T20:46:40;28.40;;;17.33;;